sensor_id;sensor_type;location;lat;lon;timestamp;pressure;altitude;pressure_sealevel;temperature;humidity
48424;BME280;34232;42.502;26.014;2022-07-29T00:02:13;100051.44;;;24.52;54.83
48424;BME280;34232;42.502;26.014;2022-07-29T00:04:38;100057.06;;;24.50;55.03
48424;BME280;34232;42.502;26.014;2022-07-29T00:07:03;100053.53;;;24.50;55.07
48424;BME280;34232;42.502;26.014;2022-07-29T00:09:29;100056.66;;;24.47;55.34
48424;BME280;34232;42.502;26.014;2022-07-29T00:11:54;100062.28;;;24.38;55.77
48424;BME280;34232;42.502;26.014;2022-07-29T00:14:21;100061.09;;;24.34;56.06
48424;BME280;34232;42.502;26.014;2022-07-29T00:16:47;100059.84;;;24.30;56.04
48424;BME280;34232;42.502;26.014;2022-07-29T00:19:12;100058.19;;;24.23;56.39
48424;BME280;34232;42.502;26.014;2022-07-29T00:21:37;100059.91;;;24.17;56.70
48424;BME280;34232;42.502;26.014;2022-07-29T00:24:02;100067.78;;;24.12;57.27
48424;BME280;34232;42.502;26.014;2022-07-29T00:26:28;100062.81;;;24.09;57.67
48424;BME280;34232;42.502;26.014;2022-07-29T00:28:56;100054.13;;;24.07;58.05
48424;BME280;34232;42.502;26.014;2022-07-29T00:31:22;100057.88;;;24.06;58.19
48424;BME280;34232;42.502;26.014;2022-07-29T00:33:47;100055.19;;;24.06;58.29
48424;BME280;34232;42.502;26.014;2022-07-29T00:36:12;100046.72;;;24.02;58.83
48424;BME280;34232;42.502;26.014;2022-07-29T00:38:38;100060.38;;;24.01;59.00
48424;BME280;34232;42.502;26.014;2022-07-29T00:41:03;100057.50;;;24.02;59.10
48424;BME280;34232;42.502;26.014;2022-07-29T00:43:28;100054.19;;;24.00;59.42
48424;BME280;34232;42.502;26.014;2022-07-29T00:45:53;100060.97;;;24.03;59.30
48424;BME280;34232;42.502;26.014;2022-07-29T00:48:19;100052.47;;;24.06;59.16
48424;BME280;34232;42.502;26.014;2022-07-29T00:50:44;100050.81;;;24.12;59.60
48424;BME280;34232;42.502;26.014;2022-07-29T00:53:09;100047.91;;;24.13;59.21
48424;BME280;34232;42.502;26.014;2022-07-29T00:55:36;100046.03;;;24.14;59.51
48424;BME280;34232;42.502;26.014;2022-07-29T00:58:02;100036.13;;;24.14;59.44
48424;BME280;34232;42.502;26.014;2022-07-29T01:00:28;100040.47;;;24.15;59.57
48424;BME280;34232;42.502;26.014;2022-07-29T01:02:53;100040.88;;;24.12;59.75
48424;BME280;34232;42.502;26.014;2022-07-29T01:05:22;100041.50;;;24.14;59.33
48424;BME280;34232;42.502;26.014;2022-07-29T01:07:49;100040.47;;;24.15;59.62
48424;BME280;34232;42.502;26.014;2022-07-29T01:10:15;100042.31;;;24.15;59.59
48424;BME280;34232;42.502;26.014;2022-07-29T01:12:41;100029.69;;;24.15;59.49
48424;BME280;34232;42.502;26.014;2022-07-29T01:15:08;100036.72;;;24.16;59.82
48424;BME280;34232;42.502;26.014;2022-07-29T01:30:38;100024.59;;;24.38;59.37
48424;BME280;34232;42.502;26.014;2022-07-29T01:33:06;100026.25;;;24.39;59.03
48424;BME280;34232;42.502;26.014;2022-07-29T01:35:36;100022.94;;;24.37;58.91
48424;BME280;34232;42.502;26.014;2022-07-29T01:38:11;100024.78;;;24.44;58.88
48424;BME280;34232;42.502;26.014;2022-07-29T01:40:48;100022.53;;;24.40;58.73
48424;BME280;34232;42.502;26.014;2022-07-29T01:43:15;100018.47;;;24.31;59.27
48424;BME280;34232;42.502;26.014;2022-07-29T01:45:42;100017.22;;;24.27;59.46
48424;BME280;34232;42.502;26.014;2022-07-29T01:50:49;100024.75;;;24.12;59.77
48424;BME280;34232;42.502;26.014;2022-07-29T01:53:28;100021.66;;;24.08;60.01
48424;BME280;34232;42.502;26.014;2022-07-29T01:55:54;100024.38;;;24.02;60.14
48424;BME280;34232;42.502;26.014;2022-07-29T01:58:21;100020.28;;;23.93;60.42
48424;BME280;34232;42.502;26.014;2022-07-29T02:00:48;100027.72;;;23.91;60.40
48424;BME280;34232;42.502;26.014;2022-07-29T02:03:14;100022.34;;;23.91;60.12
48424;BME280;34232;42.502;26.014;2022-07-29T02:05:42;100022.78;;;23.88;60.04
48424;BME280;34232;42.502;26.014;2022-07-29T02:08:09;100022.19;;;23.86;60.42
48424;BME280;34232;42.502;26.014;2022-07-29T02:10:35;100025.28;;;23.83;60.29
48424;BME280;34232;42.502;26.014;2022-07-29T02:13:03;100026.13;;;23.77;59.93
48424;BME280;34232;42.502;26.014;2022-07-29T02:15:30;100023.44;;;23.77;60.02
48424;BME280;34232;42.502;26.014;2022-07-29T02:18:04;100018.91;;;23.70;60.20
48424;BME280;34232;42.502;26.014;2022-07-29T02:20:32;100023.69;;;23.68;60.50
48424;BME280;34232;42.502;26.014;2022-07-29T02:22:58;100022.88;;;23.61;60.21
48424;BME280;34232;42.502;26.014;2022-07-29T02:25:24;100030.72;;;23.63;60.13
48424;BME280;34232;42.502;26.014;2022-07-29T02:27:51;100026.59;;;23.67;59.49
48424;BME280;34232;42.502;26.014;2022-07-29T02:30:17;100022.03;;;23.67;59.28
48424;BME280;34232;42.502;26.014;2022-07-29T02:32:43;100026.97;;;23.70;59.09
48424;BME280;34232;42.502;26.014;2022-07-29T02:35:10;100024.53;;;23.69;59.54
48424;BME280;34232;42.502;26.014;2022-07-29T02:37:37;100020.41;;;23.66;59.48
48424;BME280;34232;42.502;26.014;2022-07-29T02:40:04;100013.78;;;23.62;59.49
48424;BME280;34232;42.502;26.014;2022-07-29T02:42:31;100014.19;;;23.59;59.46
48424;BME280;34232;42.502;26.014;2022-07-29T02:44:57;100016.69;;;23.54;59.75
48424;BME280;34232;42.502;26.014;2022-07-29T02:47:24;100011.09;;;23.49;59.94
48424;BME280;34232;42.502;26.014;2022-07-29T02:50:12;100011.09;;;23.49;59.94
48424;BME280;34232;42.502;26.014;2022-07-29T02:52:41;100008.84;;;23.46;60.24
48424;BME280;34232;42.502;26.014;2022-07-29T02:55:15;100018.34;;;23.42;60.61
48424;BME280;34232;42.502;26.014;2022-07-29T02:57:43;100018.75;;;23.39;61.03
48424;BME280;34232;42.502;26.014;2022-07-29T03:00:09;100016.31;;;23.31;61.13
48424;BME280;34232;42.502;26.014;2022-07-29T03:02:44;100011.78;;;23.25;61.41
48424;BME280;34232;42.502;26.014;2022-07-29T03:05:12;100013.03;;;23.16;61.84
48424;BME280;34232;42.502;26.014;2022-07-29T03:07:38;100017.59;;;23.09;61.59
48424;BME280;34232;42.502;26.014;2022-07-29T03:10:04;100017.59;;;23.02;62.20
48424;BME280;34232;42.502;26.014;2022-07-29T03:12:29;100024.63;;;22.96;61.97
48424;BME280;34232;42.502;26.014;2022-07-29T03:14:55;100025.03;;;22.93;61.97
48424;BME280;34232;42.502;26.014;2022-07-29T03:17:21;100025.88;;;22.87;61.95
48424;BME280;34232;42.502;26.014;2022-07-29T03:19:47;100022.34;;;22.80;62.29
48424;BME280;34232;42.502;26.014;2022-07-29T03:22:12;100028.31;;;22.76;62.50
48424;BME280;34232;42.502;26.014;2022-07-29T03:24:38;100028.13;;;22.71;62.77
48424;BME280;34232;42.502;26.014;2022-07-29T03:27:04;100032.44;;;22.65;62.75
48424;BME280;34232;42.502;26.014;2022-07-29T03:29:30;100037.38;;;22.61;62.97
48424;BME280;34232;42.502;26.014;2022-07-29T03:31:58;100034.91;;;22.60;63.08
48424;BME280;34232;42.502;26.014;2022-07-29T03:34:23;100040.25;;;22.60;63.11
48424;BME280;34232;42.502;26.014;2022-07-29T03:36:49;100048.72;;;22.57;63.02
48424;BME280;34232;42.502;26.014;2022-07-29T03:39:15;100042.34;;;22.51;63.57
48424;BME280;34232;42.502;26.014;2022-07-29T03:41:42;100047.91;;;22.50;63.87
48424;BME280;34232;42.502;26.014;2022-07-29T03:44:07;100034.47;;;22.50;63.63
48424;BME280;34232;42.502;26.014;2022-07-29T03:46:33;100038.59;;;22.46;64.27
48424;BME280;34232;42.502;26.014;2022-07-29T03:49:01;100042.31;;;22.45;64.48
48424;BME280;34232;42.502;26.014;2022-07-29T03:51:27;100043.97;;;22.46;64.35
48424;BME280;34232;42.502;26.014;2022-07-29T03:53:53;100049.56;;;22.51;64.48
48424;BME280;34232;42.502;26.014;2022-07-29T03:56:19;100046.25;;;22.55;64.40
48424;BME280;34232;42.502;26.014;2022-07-29T03:58:46;100042.75;;;22.61;64.63
48424;BME280;34232;42.502;26.014;2022-07-29T04:01:11;100050.00;;;22.67;64.44
48424;BME280;34232;42.502;26.014;2022-07-29T04:03:37;100051.84;;;22.74;64.39
48424;BME280;34232;42.502;26.014;2022-07-29T04:06:04;100056.63;;;22.78;64.59
48424;BME280;34232;42.502;26.014;2022-07-29T04:08:32;100046.94;;;22.84;64.57
48424;BME280;34232;42.502;26.014;2022-07-29T04:10:58;100053.94;;;22.91;64.73
48424;BME280;34232;42.502;26.014;2022-07-29T04:13:23;100057.69;;;22.97;64.78
48424;BME280;34232;42.502;26.014;2022-07-29T04:15:48;100064.72;;;23.05;64.78
48424;BME280;34232;42.502;26.014;2022-07-29T04:18:14;100065.72;;;23.10;64.85
48424;BME280;34232;42.502;26.014;2022-07-29T04:20:39;100068.81;;;23.14;64.70
48424;BME280;34232;42.502;26.014;2022-07-29T04:23:04;100070.91;;;23.18;64.43
48424;BME280;34232;42.502;26.014;2022-07-29T04:25:29;100069.84;;;23.26;64.32
48424;BME280;34232;42.502;26.014;2022-07-29T04:27:55;100078.31;;;23.36;64.01
48424;BME280;34232;42.502;26.014;2022-07-29T04:30:26;100076.84;;;23.40;61.89
48424;BME280;34232;42.502;26.014;2022-07-29T04:32:51;100079.94;;;23.50;61.21
48424;BME280;34232;42.502;26.014;2022-07-29T04:35:17;100082.00;;;23.61;60.76
48424;BME280;34232;42.502;26.014;2022-07-29T04:37:43;100079.94;;;23.70;61.21
48424;BME280;34232;42.502;26.014;2022-07-29T04:40:08;100079.91;;;23.77;60.98
48424;BME280;34232;42.502;26.014;2022-07-29T04:42:33;100071.22;;;23.81;61.71
48424;BME280;34232;42.502;26.014;2022-07-29T04:44:59;100076.34;;;23.96;60.30
48424;BME280;34232;42.502;26.014;2022-07-29T04:47:24;100079.81;;;24.03;60.85
48424;BME280;34232;42.502;26.014;2022-07-29T04:49:49;100080.19;;;24.13;61.30
48424;BME280;34232;42.502;26.014;2022-07-29T04:52:14;100079.31;;;24.19;60.76
48424;BME280;34232;42.502;26.014;2022-07-29T04:54:40;100077.28;;;24.15;61.04
48424;BME280;34232;42.502;26.014;2022-07-29T04:57:05;100092.34;;;24.22;60.97
48424;BME280;34232;42.502;26.014;2022-07-29T04:59:30;100091.31;;;24.30;60.90
48424;BME280;34232;42.502;26.014;2022-07-29T05:01:55;100089.41;;;24.37;61.54
48424;BME280;34232;42.502;26.014;2022-07-29T05:04:21;100094.13;;;24.48;61.08
48424;BME280;34232;42.502;26.014;2022-07-29T05:06:46;100091.97;;;24.63;59.74
48424;BME280;34232;42.502;26.014;2022-07-29T05:09:11;100103.47;;;24.77;58.97
48424;BME280;34232;42.502;26.014;2022-07-29T05:11:37;100094.03;;;24.93;58.58
48424;BME280;34232;42.502;26.014;2022-07-29T05:14:02;100094.53;;;25.15;58.18
48424;BME280;34232;42.502;26.014;2022-07-29T05:16:27;100102.16;;;25.42;56.12
48424;BME280;34232;42.502;26.014;2022-07-29T05:18:52;100098.03;;;25.65;54.42
48424;BME280;34232;42.502;26.014;2022-07-29T05:21:18;100104.59;;;25.87;52.84
48424;BME280;34232;42.502;26.014;2022-07-29T05:23:43;100106.03;;;26.08;52.13
48424;BME280;34232;42.502;26.014;2022-07-29T05:26:08;100108.31;;;26.29;53.60
48424;BME280;34232;42.502;26.014;2022-07-29T05:28:34;100108.38;;;26.53;53.80
48424;BME280;34232;42.502;26.014;2022-07-29T05:31:00;100104.22;;;26.80;51.01
48424;BME280;34232;42.502;26.014;2022-07-29T05:33:25;100103.28;;;27.04;51.62
48424;BME280;34232;42.502;26.014;2022-07-29T05:35:50;100100.59;;;27.28;49.43
48424;BME280;34232;42.502;26.014;2022-07-29T05:38:16;100109.19;;;27.36;49.78
48424;BME280;34232;42.502;26.014;2022-07-29T05:40:41;100104.13;;;27.63;49.16
48424;BME280;34232;42.502;26.014;2022-07-29T05:43:06;100106.84;;;27.86;48.75
48424;BME280;34232;42.502;26.014;2022-07-29T05:45:32;100108.41;;;28.11;46.15
48424;BME280;34232;42.502;26.014;2022-07-29T05:47:57;100113.31;;;28.37;45.94
48424;BME280;34232;42.502;26.014;2022-07-29T05:50:22;100111.47;;;28.54;44.92
48424;BME280;34232;42.502;26.014;2022-07-29T05:52:47;100110.78;;;28.76;44.90
48424;BME280;34232;42.502;26.014;2022-07-29T05:55:13;100113.88;;;28.96;46.21
48424;BME280;34232;42.502;26.014;2022-07-29T05:57:38;100123.91;;;29.12;43.54
48424;BME280;34232;42.502;26.014;2022-07-29T06:00:04;100126.22;;;29.37;42.96
48424;BME280;34232;42.502;26.014;2022-07-29T06:02:29;100123.25;;;29.55;41.81
48424;BME280;34232;42.502;26.014;2022-07-29T06:04:54;100122.88;;;29.85;42.26
48424;BME280;34232;42.502;26.014;2022-07-29T06:07:20;100122.84;;;30.02;41.73
48424;BME280;34232;42.502;26.014;2022-07-29T06:09:45;100116.91;;;30.27;40.24
48424;BME280;34232;42.502;26.014;2022-07-29T06:12:10;100112.28;;;30.49;40.04
48424;BME280;34232;42.502;26.014;2022-07-29T06:14:36;100115.16;;;30.65;37.50
48424;BME280;34232;42.502;26.014;2022-07-29T06:17:02;100116.91;;;30.76;36.67
48424;BME280;34232;42.502;26.014;2022-07-29T06:19:28;100113.50;;;30.90;37.67
48424;BME280;34232;42.502;26.014;2022-07-29T06:21:53;100111.59;;;30.91;35.74
48424;BME280;34232;42.502;26.014;2022-07-29T06:24:19;100117.59;;;30.93;36.11
48424;BME280;34232;42.502;26.014;2022-07-29T06:26:44;100110.06;;;31.00;36.20
48424;BME280;34232;42.502;26.014;2022-07-29T06:29:09;100111.03;;;31.16;35.35
48424;BME280;34232;42.502;26.014;2022-07-29T06:31:39;100112.56;;;31.39;36.18
48424;BME280;34232;42.502;26.014;2022-07-29T06:34:05;100110.28;;;31.62;34.51
48424;BME280;34232;42.502;26.014;2022-07-29T06:36:33;100111.22;;;31.83;34.96
48424;BME280;34232;42.502;26.014;2022-07-29T06:38:59;100102.59;;;31.96;32.73
48424;BME280;34232;42.502;26.014;2022-07-29T06:41:27;100104.06;;;32.24;34.08
48424;BME280;34232;42.502;26.014;2022-07-29T06:43:52;100110.38;;;32.35;33.75
48424;BME280;34232;42.502;26.014;2022-07-29T06:46:18;100100.31;;;32.51;31.96
48424;BME280;34232;42.502;26.014;2022-07-29T06:48:43;100100.63;;;32.69;32.70
48424;BME280;34232;42.502;26.014;2022-07-29T06:51:09;100098.50;;;32.87;32.18
48424;BME280;34232;42.502;26.014;2022-07-29T06:53:35;100099.56;;;33.01;32.04
48424;BME280;34232;42.502;26.014;2022-07-29T06:56:00;100097.69;;;33.07;31.49
48424;BME280;34232;42.502;26.014;2022-07-29T06:58:26;100104.47;;;32.84;30.77
48424;BME280;34232;42.502;26.014;2022-07-29T07:00:52;100095.72;;;32.72;31.24
48424;BME280;34232;42.502;26.014;2022-07-29T07:03:17;100094.13;;;32.86;31.89
48424;BME280;34232;42.502;26.014;2022-07-29T07:05:43;100100.69;;;32.95;32.87
48424;BME280;34232;42.502;26.014;2022-07-29T07:08:09;100098.50;;;32.87;30.57
48424;BME280;34232;42.502;26.014;2022-07-29T07:10:34;100103.41;;;33.00;30.91
48424;BME280;34232;42.502;26.014;2022-07-29T07:12:59;100103.41;;;32.90;31.36
48424;BME280;34232;42.502;26.014;2022-07-29T07:15:25;100103.94;;;32.87;30.92
48424;BME280;34232;42.502;26.014;2022-07-29T07:17:50;100090.28;;;33.12;30.92
48424;BME280;34232;42.502;26.014;2022-07-29T07:20:16;100097.94;;;33.30;30.85
48424;BME280;34232;42.502;26.014;2022-07-29T07:22:41;100096.59;;;33.33;30.09
48424;BME280;34232;42.502;26.014;2022-07-29T07:25:07;100093.03;;;33.07;31.20
48424;BME280;34232;42.502;26.014;2022-07-29T07:27:32;100091.94;;;33.08;31.44
48424;BME280;34232;42.502;26.014;2022-07-29T07:29:58;100099.56;;;32.81;30.92
48424;BME280;34232;42.502;26.014;2022-07-29T07:32:23;100095.78;;;32.92;31.56
48424;BME280;34232;42.502;26.014;2022-07-29T07:34:48;100093.03;;;33.17;31.31
48424;BME280;34232;42.502;26.014;2022-07-29T07:37:14;100106.94;;;32.85;31.33
48424;BME280;34232;42.502;26.014;2022-07-29T07:39:40;100087.88;;;32.95;31.67
48424;BME280;34232;42.502;26.014;2022-07-29T07:42:05;100088.69;;;33.11;31.42
48424;BME280;34232;42.502;26.014;2022-07-29T07:44:30;100081.84;;;33.34;30.84
48424;BME280;34232;42.502;26.014;2022-07-29T07:46:55;100085.34;;;33.50;31.80
48424;BME280;34232;42.502;26.014;2022-07-29T07:49:21;100079.38;;;33.32;31.43
48424;BME280;34232;42.502;26.014;2022-07-29T07:51:46;100083.47;;;33.30;30.49
48424;BME280;34232;42.502;26.014;2022-07-29T07:54:11;100079.94;;;33.40;30.23
48424;BME280;34232;42.502;26.014;2022-07-29T07:56:37;100077.19;;;33.34;30.95
48424;BME280;34232;42.502;26.014;2022-07-29T07:59:02;100073.06;;;33.52;30.79
48424;BME280;34232;42.502;26.014;2022-07-29T08:01:27;100070.06;;;33.59;30.13
48424;BME280;34232;42.502;26.014;2022-07-29T08:03:53;100075.75;;;33.78;30.24
48424;BME280;34232;42.502;26.014;2022-07-29T08:06:18;100079.03;;;33.69;30.07
48424;BME280;34232;42.502;26.014;2022-07-29T08:08:43;100074.91;;;33.87;30.05
48424;BME280;34232;42.502;26.014;2022-07-29T08:11:08;100068.91;;;33.80;29.58
48424;BME280;34232;42.502;26.014;2022-07-29T08:13:34;100068.66;;;33.77;30.02
48424;BME280;34232;42.502;26.014;2022-07-29T08:15:59;100064.56;;;33.64;30.47
48424;BME280;34232;42.502;26.014;2022-07-29T08:18:27;100065.88;;;33.87;30.51
48424;BME280;34232;42.502;26.014;2022-07-29T08:20:52;100073.19;;;34.01;30.45
48424;BME280;34232;42.502;26.014;2022-07-29T08:23:18;100067.66;;;34.12;29.96
48424;BME280;34232;42.502;26.014;2022-07-29T08:25:44;100067.06;;;34.30;29.98
48424;BME280;34232;42.502;26.014;2022-07-29T08:28:09;100065.66;;;34.37;29.05
48424;BME280;34232;42.502;26.014;2022-07-29T08:30:34;100078.41;;;34.52;28.70
48424;BME280;34232;42.502;26.014;2022-07-29T08:32:59;100067.34;;;34.67;28.87
48424;BME280;34232;42.502;26.014;2022-07-29T08:35:25;100074.41;;;34.79;28.27
48424;BME280;34232;42.502;26.014;2022-07-29T08:37:50;100068.41;;;34.71;28.67
48424;BME280;34232;42.502;26.014;2022-07-29T08:40:16;100068.94;;;34.79;28.23
48424;BME280;34232;42.502;26.014;2022-07-29T08:42:41;100063.97;;;34.86;28.05
48424;BME280;34232;42.502;26.014;2022-07-29T08:45:07;100066.72;;;34.81;27.99
48424;BME280;34232;42.502;26.014;2022-07-29T08:47:32;100066.06;;;34.94;28.32
48424;BME280;34232;42.502;26.014;2022-07-29T08:49:58;100054.81;;;35.29;29.40
48424;BME280;34232;42.502;26.014;2022-07-29T08:52:25;100046.06;;;35.27;28.21
48424;BME280;34232;42.502;26.014;2022-07-29T08:54:50;100056.28;;;35.46;28.34
48424;BME280;34232;42.502;26.014;2022-07-29T08:57:17;100053.38;;;35.61;27.86
48424;BME280;34232;42.502;26.014;2022-07-29T08:59:42;100051.00;;;35.73;27.75
48424;BME280;34232;42.502;26.014;2022-07-29T09:02:12;100047.09;;;35.84;27.54
48424;BME280;34232;42.502;26.014;2022-07-29T09:04:40;100038.72;;;35.94;27.45
48424;BME280;34232;42.502;26.014;2022-07-29T09:07:06;100044.22;;;35.94;27.81
48424;BME280;34232;42.502;26.014;2022-07-29T09:09:33;100044.25;;;35.89;27.78
48424;BME280;34232;42.502;26.014;2022-07-29T09:11:58;100034.06;;;35.95;26.89
48424;BME280;34232;42.502;26.014;2022-07-29T09:14:24;100042.03;;;35.91;27.40
48424;BME280;34232;42.502;26.014;2022-07-29T09:16:53;100036.66;;;36.05;27.65
48424;BME280;34232;42.502;26.014;2022-07-29T09:19:26;100042.25;;;36.19;26.90
48424;BME280;34232;42.502;26.014;2022-07-29T09:21:53;100039.72;;;36.41;26.77
48424;BME280;34232;42.502;26.014;2022-07-29T09:24:46;100035.63;;;36.57;27.23
48424;BME280;34232;42.502;26.014;2022-07-29T09:29:44;100035.25;;;36.83;27.06
48424;BME280;34232;42.502;26.014;2022-07-29T09:32:09;100025.47;;;36.76;25.80
48424;BME280;34232;42.502;26.014;2022-07-29T09:34:35;100032.22;;;36.65;26.92
48424;BME280;34232;42.502;26.014;2022-07-29T09:37:01;100028.44;;;36.61;26.39
48424;BME280;34232;42.502;26.014;2022-07-29T09:39:27;100036.38;;;36.63;26.13
48424;BME280;34232;42.502;26.014;2022-07-29T09:41:54;100024.69;;;36.90;25.64
48424;BME280;34232;42.502;26.014;2022-07-29T09:44:19;100029.72;;;37.15;25.92
48424;BME280;34232;42.502;26.014;2022-07-29T09:47:00;100028.63;;;37.16;26.05
48424;BME280;34232;42.502;26.014;2022-07-29T09:49:35;100028.47;;;37.07;25.93
48424;BME280;34232;42.502;26.014;2022-07-29T09:52:05;100027.41;;;37.22;25.57
48424;BME280;34232;42.502;26.014;2022-07-29T09:54:30;100033.69;;;37.09;25.92
48424;BME280;34232;42.502;26.014;2022-07-29T09:57:01;100025.19;;;37.24;25.24
48424;BME280;34232;42.502;26.014;2022-07-29T09:59:27;100026.34;;;37.04;25.18
48424;BME280;34232;42.502;26.014;2022-07-29T10:01:53;100018.00;;;36.96;25.05
48424;BME280;34232;42.502;26.014;2022-07-29T10:04:18;100016.44;;;36.90;25.58
48424;BME280;34232;42.502;26.014;2022-07-29T10:06:57;100004.13;;;36.87;24.92
48424;BME280;34232;42.502;26.014;2022-07-29T10:09:22;100010.03;;;36.81;25.59
48424;BME280;34232;42.502;26.014;2022-07-29T10:12:07;100011.56;;;36.87;25.34
48424;BME280;34232;42.502;26.014;2022-07-29T10:14:34;100005.06;;;36.83;25.91
48424;BME280;34232;42.502;26.014;2022-07-29T10:16:59;100002.84;;;36.85;25.63
48424;BME280;34232;42.502;26.014;2022-07-29T10:19:26;99998.06;;;37.04;25.18
48424;BME280;34232;42.502;26.014;2022-07-29T10:21:52;99998.69;;;37.01;25.23
48424;BME280;34232;42.502;26.014;2022-07-29T10:24:18;100002.13;;;36.93;25.19
48424;BME280;34232;42.502;26.014;2022-07-29T10:26:43;99997.34;;;36.85;25.58
48424;BME280;34232;42.502;26.014;2022-07-29T10:29:11;99994.41;;;36.95;25.13
48424;BME280;34232;42.502;26.014;2022-07-29T10:31:40;99991.03;;;36.84;24.61
48424;BME280;34232;42.502;26.014;2022-07-29T10:34:21;100001.81;;;36.94;24.66
48424;BME280;34232;42.502;26.014;2022-07-29T10:41:46;99972.59;;;37.44;24.93
48424;BME280;34232;42.502;26.014;2022-07-29T10:44:23;99970.34;;;37.60;24.38
48424;BME280;34232;42.502;26.014;2022-07-29T10:46:50;99973.09;;;37.74;24.12
48424;BME280;34232;42.502;26.014;2022-07-29T10:49:17;99973.91;;;37.74;24.88
48424;BME280;34232;42.502;26.014;2022-07-29T10:57:14;99956.63;;;37.46;24.45
48424;BME280;34232;42.502;26.014;2022-07-29T10:59:39;99961.00;;;37.47;24.90
48424;BME280;34232;42.502;26.014;2022-07-29T11:07:17;99967.34;;;37.84;24.29
48424;BME280;34232;42.502;26.014;2022-07-29T11:09:42;99958.56;;;38.09;24.52
48424;BME280;34232;42.502;26.014;2022-07-29T11:17:22;99950.06;;;38.42;24.20
48424;BME280;34232;42.502;26.014;2022-07-29T11:19:47;99944.25;;;38.21;24.40
48424;BME280;34232;42.502;26.014;2022-07-29T11:22:31;99955.25;;;38.21;23.93
48424;BME280;34232;42.502;26.014;2022-07-29T11:25:15;99948.69;;;38.31;24.58
48424;BME280;34232;42.502;26.014;2022-07-29T11:27:41;99945.44;;;38.29;23.82
48424;BME280;34232;42.502;26.014;2022-07-29T11:30:07;99941.31;;;38.40;24.14
48424;BME280;34232;42.502;26.014;2022-07-29T11:32:40;99937.47;;;38.49;23.94
48424;BME280;34232;42.502;26.014;2022-07-29T11:37:38;99924.38;;;38.77;23.12
48424;BME280;34232;42.502;26.014;2022-07-29T11:47:22;99923.66;;;37.96;22.69
48424;BME280;34232;42.502;26.014;2022-07-29T11:49:48;99917.00;;;37.75;23.10
48424;BME280;34232;42.502;26.014;2022-07-29T11:52:15;99903.13;;;37.30;24.28
48424;BME280;34232;42.502;26.014;2022-07-29T11:54:40;99909.91;;;37.46;24.15
48424;BME280;34232;42.502;26.014;2022-07-29T11:57:07;99908.03;;;37.56;24.09
48424;BME280;34232;42.502;26.014;2022-07-29T11:59:32;99901.16;;;37.44;24.00
48424;BME280;34232;42.502;26.014;2022-07-29T12:02:03;99898.84;;;37.24;24.39
48424;BME280;34232;42.502;26.014;2022-07-29T12:04:28;99892.75;;;37.27;23.95
48424;BME280;34232;42.502;26.014;2022-07-29T12:06:55;99887.22;;;37.41;24.35
48424;BME280;34232;42.502;26.014;2022-07-29T12:09:21;99892.75;;;37.27;24.20
48424;BME280;34232;42.502;26.014;2022-07-29T12:11:47;99890.28;;;37.26;24.42
48424;BME280;34232;42.502;26.014;2022-07-29T12:14:25;99881.13;;;37.17;24.25
48424;BME280;34232;42.502;26.014;2022-07-29T12:16:51;99882.66;;;37.09;24.70
48424;BME280;34232;42.502;26.014;2022-07-29T12:19:16;99884.09;;;37.20;24.77
48424;BME280;34232;42.502;26.014;2022-07-29T12:21:45;99886.84;;;37.20;24.64
48424;BME280;34232;42.502;26.014;2022-07-29T12:24:10;99882.84;;;37.12;24.14
48424;BME280;34232;42.502;26.014;2022-07-29T12:26:36;99886.50;;;37.08;24.11
48424;BME280;34232;42.502;26.014;2022-07-29T12:29:01;99875.84;;;37.20;24.43
48424;BME280;34232;42.502;26.014;2022-07-29T12:31:27;99874.41;;;37.36;24.78
48424;BME280;34232;42.502;26.014;2022-07-29T12:33:52;99876.03;;;37.37;24.52
48424;BME280;34232;42.502;26.014;2022-07-29T12:36:27;99871.53;;;37.41;24.71
48424;BME280;34232;42.502;26.014;2022-07-29T12:38:52;99869.50;;;37.47;25.10
48424;BME280;34232;42.502;26.014;2022-07-29T12:41:18;99867.50;;;37.25;24.24
48424;BME280;34232;42.502;26.014;2022-07-29T12:43:53;99862.41;;;37.32;24.61
48424;BME280;34232;42.502;26.014;2022-07-29T12:46:18;99859.88;;;37.22;24.44
48424;BME280;34232;42.502;26.014;2022-07-29T12:48:43;99858.06;;;37.18;24.93
48424;BME280;34232;42.502;26.014;2022-07-29T12:51:10;99859.78;;;37.27;25.63
48424;BME280;34232;42.502;26.014;2022-07-29T12:53:37;99855.50;;;37.21;25.35
48424;BME280;34232;42.502;26.014;2022-07-29T12:56:03;99847.88;;;37.04;25.67
48424;BME280;34232;42.502;26.014;2022-07-29T12:58:30;99841.88;;;36.89;25.67
48424;BME280;34232;42.502;26.014;2022-07-29T13:03:56;99842.06;;;36.51;25.02
48424;BME280;34232;42.502;26.014;2022-07-29T13:11:31;99831.47;;;36.58;25.92
48424;BME280;34232;42.502;26.014;2022-07-29T13:13:56;99834.22;;;36.58;26.06
48424;BME280;34232;42.502;26.014;2022-07-29T13:16:22;99827.63;;;36.59;26.08
48424;BME280;34232;42.502;26.014;2022-07-29T13:18:47;99828.69;;;36.77;25.66
48424;BME280;34232;42.502;26.014;2022-07-29T13:21:13;99824.19;;;36.67;25.73
48424;BME280;34232;42.502;26.014;2022-07-29T13:23:38;99820.13;;;36.65;25.58
48424;BME280;34232;42.502;26.014;2022-07-29T13:26:07;99811.59;;;36.80;25.59
48424;BME280;34232;42.502;26.014;2022-07-29T13:28:33;99818.69;;;36.67;25.89
48424;BME280;34232;42.502;26.014;2022-07-29T13:30:59;99822.84;;;36.65;25.46
48424;BME280;34232;42.502;26.014;2022-07-29T13:33:24;99815.75;;;36.50;25.94
48424;BME280;34232;42.502;26.014;2022-07-29T13:35:49;99809.13;;;36.65;25.83
48424;BME280;34232;42.502;26.014;2022-07-29T13:38:14;99812.72;;;36.79;25.59